sensor_id;sensor_type;location;lat;lon;timestamp;P1;durP1;ratioP1;P2;durP2;ratioP2
25079;SDS011;13071;48.868;9.996;2023-03-01T00:00:08;16.23;;;5.60;;
25079;SDS011;13071;48.868;9.996;2023-03-01T00:02:36;23.43;;;6.23;;
25079;SDS011;13071;48.868;9.996;2023-03-01T00:05:03;17.20;;;6.27;;
25079;SDS011;13071;48.868;9.996;2023-03-01T00:07:30;11.73;;;5.23;;
25079;SDS011;13071;48.868;9.996;2023-03-01T00:09:56;16.93;;;5.90;;
25079;SDS011;13071;48.868;9.996;2023-03-01T00:12:24;16.23;;;5.33;;
25079;SDS011;13071;48.868;9.996;2023-03-01T00:14:51;13.77;;;5.40;;
25079;SDS011;13071;48.868;9.996;2023-03-01T00:17:17;23.97;;;6.77;;
25079;SDS011;13071;48.868;9.996;2023-03-01T00:19:44;13.37;;;5.67;;
25079;SDS011;13071;48.868;9.996;2023-03-01T00:22:10;19.73;;;5.50;;
25079;SDS011;13071;48.868;9.996;2023-03-01T00:24:37;10.53;;;5.37;;
25079;SDS011;13071;48.868;9.996;2023-03-01T00:27:04;18.20;;;6.57;;
25079;SDS011;13071;48.868;9.996;2023-03-01T00:29:31;16.23;;;6.40;;
25079;SDS011;13071;48.868;9.996;2023-03-01T00:31:58;12.70;;;5.27;;
25079;SDS011;13071;48.868;9.996;2023-03-01T00:34:25;17.10;;;5.80;;
25079;SDS011;13071;48.868;9.996;2023-03-01T00:36:52;18.63;;;6.50;;
25079;SDS011;13071;48.868;9.996;2023-03-01T00:39:18;17.03;;;5.17;;
25079;SDS011;13071;48.868;9.996;2023-03-01T00:41:45;19.07;;;6.10;;
25079;SDS011;13071;48.868;9.996;2023-03-01T00:44:11;17.17;;;5.73;;
25079;SDS011;13071;48.868;9.996;2023-03-01T00:46:39;12.73;;;6.43;;
25079;SDS011;13071;48.868;9.996;2023-03-01T00:49:06;14.43;;;6.33;;
25079;SDS011;13071;48.868;9.996;2023-03-01T00:51:32;19.23;;;6.73;;
25079;SDS011;13071;48.868;9.996;2023-03-01T00:54:00;16.93;;;6.63;;
25079;SDS011;13071;48.868;9.996;2023-03-01T00:56:28;15.67;;;5.43;;
25079;SDS011;13071;48.868;9.996;2023-03-01T00:58:55;19.20;;;7.23;;
25079;SDS011;13071;48.868;9.996;2023-03-01T01:01:22;15.87;;;5.57;;
25079;SDS011;13071;48.868;9.996;2023-03-01T01:03:54;22.13;;;6.83;;
25079;SDS011;13071;48.868;9.996;2023-03-01T01:06:23;13.67;;;6.37;;
25079;SDS011;13071;48.868;9.996;2023-03-01T01:08:51;19.87;;;6.23;;
25079;SDS011;13071;48.868;9.996;2023-03-01T01:11:19;15.97;;;6.73;;
25079;SDS011;13071;48.868;9.996;2023-03-01T01:13:47;13.60;;;5.47;;
25079;SDS011;13071;48.868;9.996;2023-03-01T01:16:14;20.60;;;7.10;;
25079;SDS011;13071;48.868;9.996;2023-03-01T01:18:42;20.13;;;7.47;;
25079;SDS011;13071;48.868;9.996;2023-03-01T01:21:11;20.67;;;6.57;;
25079;SDS011;13071;48.868;9.996;2023-03-01T01:23:39;19.57;;;7.33;;
25079;SDS011;13071;48.868;9.996;2023-03-01T01:26:07;29.57;;;7.47;;
25079;SDS011;13071;48.868;9.996;2023-03-01T01:28:34;21.00;;;7.17;;
25079;SDS011;13071;48.868;9.996;2023-03-01T01:31:01;26.87;;;7.57;;
25079;SDS011;13071;48.868;9.996;2023-03-01T01:33:28;16.97;;;5.77;;
25079;SDS011;13071;48.868;9.996;2023-03-01T01:35:55;21.30;;;6.73;;
25079;SDS011;13071;48.868;9.996;2023-03-01T01:38:23;12.57;;;4.67;;
25079;SDS011;13071;48.868;9.996;2023-03-01T01:40:50;14.70;;;6.03;;
25079;SDS011;13071;48.868;9.996;2023-03-01T01:43:18;17.87;;;6.80;;
25079;SDS011;13071;48.868;9.996;2023-03-01T01:45:48;16.97;;;6.70;;
25079;SDS011;13071;48.868;9.996;2023-03-01T01:48:16;17.53;;;6.37;;
25079;SDS011;13071;48.868;9.996;2023-03-01T01:50:48;18.70;;;6.80;;
25079;SDS011;13071;48.868;9.996;2023-03-01T01:53:20;14.60;;;6.13;;
25079;SDS011;13071;48.868;9.996;2023-03-01T01:55:51;19.60;;;6.60;;
25079;SDS011;13071;48.868;9.996;2023-03-01T01:58:22;17.53;;;5.90;;
25079;SDS011;13071;48.868;9.996;2023-03-01T02:00:51;17.53;;;6.83;;
25079;SDS011;13071;48.868;9.996;2023-03-01T02:03:20;16.30;;;7.30;;
25079;SDS011;13071;48.868;9.996;2023-03-01T02:05:55;21.90;;;6.90;;
25079;SDS011;13071;48.868;9.996;2023-03-01T02:08:28;21.23;;;6.43;;
25079;SDS011;13071;48.868;9.996;2023-03-01T02:10:57;17.10;;;6.23;;
25079;SDS011;13071;48.868;9.996;2023-03-01T02:13:25;21.47;;;6.43;;
25079;SDS011;13071;48.868;9.996;2023-03-01T02:15:52;17.63;;;6.80;;
25079;SDS011;13071;48.868;9.996;2023-03-01T02:18:20;22.90;;;8.43;;
25079;SDS011;13071;48.868;9.996;2023-03-01T02:20:52;16.77;;;6.07;;
25079;SDS011;13071;48.868;9.996;2023-03-01T02:23:28;15.70;;;6.57;;
25079;SDS011;13071;48.868;9.996;2023-03-01T02:25:57;24.07;;;7.40;;
25079;SDS011;13071;48.868;9.996;2023-03-01T02:28:31;16.90;;;6.37;;
25079;SDS011;13071;48.868;9.996;2023-03-01T02:30:59;21.87;;;6.83;;
25079;SDS011;13071;48.868;9.996;2023-03-01T02:33:45;17.33;;;6.33;;
25079;SDS011;13071;48.868;9.996;2023-03-01T02:36:14;23.60;;;7.40;;
25079;SDS011;13071;48.868;9.996;2023-03-01T02:38:44;20.83;;;6.73;;
25079;SDS011;13071;48.868;9.996;2023-03-01T02:41:13;15.17;;;6.10;;
25079;SDS011;13071;48.868;9.996;2023-03-01T02:43:43;17.10;;;6.73;;
25079;SDS011;13071;48.868;9.996;2023-03-01T02:46:13;21.90;;;6.90;;
25079;SDS011;13071;48.868;9.996;2023-03-01T02:48:42;15.53;;;7.03;;
25079;SDS011;13071;48.868;9.996;2023-03-01T02:51:13;20.13;;;7.57;;
25079;SDS011;13071;48.868;9.996;2023-03-01T02:53:54;20.90;;;7.07;;
25079;SDS011;13071;48.868;9.996;2023-03-01T02:56:27;24.40;;;6.87;;
25079;SDS011;13071;48.868;9.996;2023-03-01T02:58:56;20.20;;;6.77;;
25079;SDS011;13071;48.868;9.996;2023-03-01T03:01:25;22.37;;;8.23;;
25079;SDS011;13071;48.868;9.996;2023-03-01T03:04:02;28.33;;;7.40;;
25079;SDS011;13071;48.868;9.996;2023-03-01T03:06:30;20.00;;;7.23;;
25079;SDS011;13071;48.868;9.996;2023-03-01T03:08:56;16.30;;;5.90;;
25079;SDS011;13071;48.868;9.996;2023-03-01T03:11:23;21.80;;;6.57;;
25079;SDS011;13071;48.868;9.996;2023-03-01T03:13:50;20.83;;;7.23;;
25079;SDS011;13071;48.868;9.996;2023-03-01T03:16:18;19.13;;;6.43;;
25079;SDS011;13071;48.868;9.996;2023-03-01T03:18:45;20.33;;;6.93;;
25079;SDS011;13071;48.868;9.996;2023-03-01T03:21:12;23.90;;;8.73;;
25079;SDS011;13071;48.868;9.996;2023-03-01T03:23:39;18.13;;;7.53;;
25079;SDS011;13071;48.868;9.996;2023-03-01T03:26:05;18.03;;;6.40;;
25079;SDS011;13071;48.868;9.996;2023-03-01T03:28:32;26.03;;;8.07;;
25079;SDS011;13071;48.868;9.996;2023-03-01T03:31:00;24.67;;;6.23;;
25079;SDS011;13071;48.868;9.996;2023-03-01T03:33:29;22.03;;;6.83;;
25079;SDS011;13071;48.868;9.996;2023-03-01T03:35:56;24.43;;;7.87;;
25079;SDS011;13071;48.868;9.996;2023-03-01T03:38:23;28.70;;;7.80;;
25079;SDS011;13071;48.868;9.996;2023-03-01T03:40:50;25.00;;;7.93;;
25079;SDS011;13071;48.868;9.996;2023-03-01T03:43:18;18.27;;;6.07;;
25079;SDS011;13071;48.868;9.996;2023-03-01T03:45:47;19.20;;;6.77;;
25079;SDS011;13071;48.868;9.996;2023-03-01T03:48:15;26.83;;;7.60;;
25079;SDS011;13071;48.868;9.996;2023-03-01T03:50:47;18.07;;;7.20;;
25079;SDS011;13071;48.868;9.996;2023-03-01T03:53:15;32.57;;;7.97;;
25079;SDS011;13071;48.868;9.996;2023-03-01T03:55:41;20.00;;;6.03;;
25079;SDS011;13071;48.868;9.996;2023-03-01T03:58:09;27.93;;;8.70;;
25079;SDS011;13071;48.868;9.996;2023-03-01T04:00:37;15.13;;;6.67;;
25079;SDS011;13071;48.868;9.996;2023-03-01T04:03:05;22.87;;;7.23;;
25079;SDS011;13071;48.868;9.996;2023-03-01T04:05:33;21.57;;;8.30;;
25079;SDS011;13071;48.868;9.996;2023-03-01T04:08:01;16.80;;;7.80;;
25079;SDS011;13071;48.868;9.996;2023-03-01T04:10:29;17.13;;;6.00;;
25079;SDS011;13071;48.868;9.996;2023-03-01T04:12:57;20.97;;;8.00;;
25079;SDS011;13071;48.868;9.996;2023-03-01T04:15:25;23.40;;;6.90;;
25079;SDS011;13071;48.868;9.996;2023-03-01T04:17:52;18.20;;;7.33;;
25079;SDS011;13071;48.868;9.996;2023-03-01T04:20:21;16.53;;;6.17;;
25079;SDS011;13071;48.868;9.996;2023-03-01T04:22:50;18.67;;;6.37;;
25079;SDS011;13071;48.868;9.996;2023-03-01T04:25:19;28.17;;;8.20;;
25079;SDS011;13071;48.868;9.996;2023-03-01T04:27:46;19.93;;;6.80;;
25079;SDS011;13071;48.868;9.996;2023-03-01T04:30:13;23.17;;;7.93;;
25079;SDS011;13071;48.868;9.996;2023-03-01T04:32:40;24.03;;;7.33;;
25079;SDS011;13071;48.868;9.996;2023-03-01T04:35:06;19.87;;;8.10;;
25079;SDS011;13071;48.868;9.996;2023-03-01T04:37:34;17.87;;;6.33;;
25079;SDS011;13071;48.868;9.996;2023-03-01T04:40:00;15.80;;;6.83;;
25079;SDS011;13071;48.868;9.996;2023-03-01T04:42:38;16.73;;;8.10;;
25079;SDS011;13071;48.868;9.996;2023-03-01T04:45:05;18.43;;;6.43;;
25079;SDS011;13071;48.868;9.996;2023-03-01T04:47:38;28.07;;;9.83;;
25079;SDS011;13071;48.868;9.996;2023-03-01T04:50:05;26.27;;;6.63;;
25079;SDS011;13071;48.868;9.996;2023-03-01T04:52:32;16.67;;;7.40;;
25079;SDS011;13071;48.868;9.996;2023-03-01T04:54:59;18.27;;;7.43;;
25079;SDS011;13071;48.868;9.996;2023-03-01T04:57:26;18.70;;;7.80;;
25079;SDS011;13071;48.868;9.996;2023-03-01T04:59:54;19.63;;;7.40;;
25079;SDS011;13071;48.868;9.996;2023-03-01T05:02:20;17.87;;;7.43;;
25079;SDS011;13071;48.868;9.996;2023-03-01T05:04:47;15.30;;;6.53;;
25079;SDS011;13071;48.868;9.996;2023-03-01T05:07:13;15.83;;;6.50;;
25079;SDS011;13071;48.868;9.996;2023-03-01T05:09:44;19.60;;;6.30;;
25079;SDS011;13071;48.868;9.996;2023-03-01T05:12:11;25.47;;;8.03;;
25079;SDS011;13071;48.868;9.996;2023-03-01T05:14:37;18.40;;;8.43;;
25079;SDS011;13071;48.868;9.996;2023-03-01T05:17:05;19.73;;;7.30;;
25079;SDS011;13071;48.868;9.996;2023-03-01T05:19:32;20.23;;;7.30;;
25079;SDS011;13071;48.868;9.996;2023-03-01T05:21:59;22.93;;;7.73;;
25079;SDS011;13071;48.868;9.996;2023-03-01T05:24:30;20.90;;;7.13;;
25079;SDS011;13071;48.868;9.996;2023-03-01T05:26:58;21.13;;;7.43;;
25079;SDS011;13071;48.868;9.996;2023-03-01T05:29:25;23.13;;;8.03;;
25079;SDS011;13071;48.868;9.996;2023-03-01T05:31:53;26.93;;;8.70;;
25079;SDS011;13071;48.868;9.996;2023-03-01T05:34:24;20.17;;;5.87;;
25079;SDS011;13071;48.868;9.996;2023-03-01T05:36:52;23.70;;;8.40;;
25079;SDS011;13071;48.868;9.996;2023-03-01T05:39:19;25.37;;;7.87;;
25079;SDS011;13071;48.868;9.996;2023-03-01T05:41:47;22.33;;;6.40;;
25079;SDS011;13071;48.868;9.996;2023-03-01T05:44:14;16.80;;;6.77;;
25079;SDS011;13071;48.868;9.996;2023-03-01T05:46:41;25.30;;;7.83;;
25079;SDS011;13071;48.868;9.996;2023-03-01T05:49:07;19.37;;;7.60;;
25079;SDS011;13071;48.868;9.996;2023-03-01T05:51:35;22.60;;;8.10;;
25079;SDS011;13071;48.868;9.996;2023-03-01T05:54:02;22.17;;;7.83;;
25079;SDS011;13071;48.868;9.996;2023-03-01T05:56:31;16.80;;;5.90;;
25079;SDS011;13071;48.868;9.996;2023-03-01T05:58:58;28.93;;;9.83;;
25079;SDS011;13071;48.868;9.996;2023-03-01T06:01:25;29.80;;;9.03;;
25079;SDS011;13071;48.868;9.996;2023-03-01T06:03:51;21.73;;;6.37;;
25079;SDS011;13071;48.868;9.996;2023-03-01T06:06:18;21.57;;;7.73;;
25079;SDS011;13071;48.868;9.996;2023-03-01T06:08:46;25.67;;;7.77;;
25079;SDS011;13071;48.868;9.996;2023-03-01T06:11:12;22.67;;;7.37;;
25079;SDS011;13071;48.868;9.996;2023-03-01T06:13:40;14.83;;;6.70;;
25079;SDS011;13071;48.868;9.996;2023-03-01T06:16:07;15.73;;;7.10;;
25079;SDS011;13071;48.868;9.996;2023-03-01T06:18:34;24.67;;;8.43;;
25079;SDS011;13071;48.868;9.996;2023-03-01T06:21:01;23.47;;;7.67;;
25079;SDS011;13071;48.868;9.996;2023-03-01T06:23:28;30.00;;;9.17;;
25079;SDS011;13071;48.868;9.996;2023-03-01T06:25:56;27.97;;;9.23;;
25079;SDS011;13071;48.868;9.996;2023-03-01T06:28:23;21.87;;;7.97;;
25079;SDS011;13071;48.868;9.996;2023-03-01T06:30:50;21.17;;;8.10;;
25079;SDS011;13071;48.868;9.996;2023-03-01T06:33:17;27.77;;;8.90;;
25079;SDS011;13071;48.868;9.996;2023-03-01T06:35:45;19.87;;;6.60;;
25079;SDS011;13071;48.868;9.996;2023-03-01T06:38:11;28.87;;;8.07;;
25079;SDS011;13071;48.868;9.996;2023-03-01T06:40:40;21.13;;;7.77;;
25079;SDS011;13071;48.868;9.996;2023-03-01T06:43:08;29.27;;;9.37;;
25079;SDS011;13071;48.868;9.996;2023-03-01T06:45:34;21.80;;;8.10;;
25079;SDS011;13071;48.868;9.996;2023-03-01T06:48:01;23.00;;;7.03;;
25079;SDS011;13071;48.868;9.996;2023-03-01T06:50:29;26.53;;;8.93;;
25079;SDS011;13071;48.868;9.996;2023-03-01T06:52:56;27.33;;;8.60;;
25079;SDS011;13071;48.868;9.996;2023-03-01T06:55:23;27.43;;;7.20;;
25079;SDS011;13071;48.868;9.996;2023-03-01T06:57:53;19.80;;;8.00;;
25079;SDS011;13071;48.868;9.996;2023-03-01T07:00:22;26.20;;;7.57;;
25079;SDS011;13071;48.868;9.996;2023-03-01T07:02:50;26.37;;;7.83;;
25079;SDS011;13071;48.868;9.996;2023-03-01T07:05:16;20.07;;;7.53;;
25079;SDS011;13071;48.868;9.996;2023-03-01T07:07:43;30.47;;;9.57;;
25079;SDS011;13071;48.868;9.996;2023-03-01T07:10:10;19.07;;;6.87;;
25079;SDS011;13071;48.868;9.996;2023-03-01T07:12:37;33.20;;;9.87;;
25079;SDS011;13071;48.868;9.996;2023-03-01T07:15:07;27.03;;;8.20;;
25079;SDS011;13071;48.868;9.996;2023-03-01T07:17:37;24.47;;;8.00;;
25079;SDS011;13071;48.868;9.996;2023-03-01T07:20:03;24.80;;;7.77;;
25079;SDS011;13071;48.868;9.996;2023-03-01T07:22:30;18.43;;;6.30;;
25079;SDS011;13071;48.868;9.996;2023-03-01T07:24:57;30.93;;;10.03;;
25079;SDS011;13071;48.868;9.996;2023-03-01T07:27:24;27.77;;;9.00;;
25079;SDS011;13071;48.868;9.996;2023-03-01T07:29:50;22.10;;;8.10;;
25079;SDS011;13071;48.868;9.996;2023-03-01T07:32:17;26.57;;;8.60;;
25079;SDS011;13071;48.868;9.996;2023-03-01T07:34:45;23.60;;;6.83;;
25079;SDS011;13071;48.868;9.996;2023-03-01T07:37:11;16.57;;;7.43;;
25079;SDS011;13071;48.868;9.996;2023-03-01T07:39:38;13.13;;;6.20;;
25079;SDS011;13071;48.868;9.996;2023-03-01T07:42:04;21.77;;;7.33;;
25079;SDS011;13071;48.868;9.996;2023-03-01T07:44:31;18.23;;;5.87;;
25079;SDS011;13071;48.868;9.996;2023-03-01T07:46:57;27.50;;;9.37;;
25079;SDS011;13071;48.868;9.996;2023-03-01T07:49:24;23.03;;;9.43;;
25079;SDS011;13071;48.868;9.996;2023-03-01T07:51:53;26.50;;;8.27;;
25079;SDS011;13071;48.868;9.996;2023-03-01T07:54:20;20.90;;;6.63;;
25079;SDS011;13071;48.868;9.996;2023-03-01T07:56:47;28.27;;;8.13;;
25079;SDS011;13071;48.868;9.996;2023-03-01T07:59:13;28.97;;;6.53;;
25079;SDS011;13071;48.868;9.996;2023-03-01T08:01:40;21.60;;;7.47;;
25079;SDS011;13071;48.868;9.996;2023-03-01T08:04:07;16.73;;;7.47;;
25079;SDS011;13071;48.868;9.996;2023-03-01T08:06:33;19.30;;;6.37;;
25079;SDS011;13071;48.868;9.996;2023-03-01T08:09:02;19.27;;;6.97;;
25079;SDS011;13071;48.868;9.996;2023-03-01T08:11:29;20.50;;;6.67;;
25079;SDS011;13071;48.868;9.996;2023-03-01T08:13:55;26.80;;;9.27;;
25079;SDS011;13071;48.868;9.996;2023-03-01T08:16:22;32.10;;;7.93;;
25079;SDS011;13071;48.868;9.996;2023-03-01T08:18:49;20.53;;;7.20;;
25079;SDS011;13071;48.868;9.996;2023-03-01T08:21:16;28.50;;;7.20;;
25079;SDS011;13071;48.868;9.996;2023-03-01T08:23:44;26.63;;;8.97;;
25079;SDS011;13071;48.868;9.996;2023-03-01T08:26:13;19.30;;;7.77;;
25079;SDS011;13071;48.868;9.996;2023-03-01T08:28:42;21.97;;;7.93;;
25079;SDS011;13071;48.868;9.996;2023-03-01T08:31:15;23.47;;;8.33;;
25079;SDS011;13071;48.868;9.996;2023-03-01T08:33:44;20.77;;;7.40;;
25079;SDS011;13071;48.868;9.996;2023-03-01T08:36:15;16.97;;;6.83;;
25079;SDS011;13071;48.868;9.996;2023-03-01T08:38:42;24.30;;;9.13;;
25079;SDS011;13071;48.868;9.996;2023-03-01T08:41:08;22.53;;;9.33;;
25079;SDS011;13071;48.868;9.996;2023-03-01T08:43:36;22.67;;;7.90;;
25079;SDS011;13071;48.868;9.996;2023-03-01T08:46:03;25.30;;;8.20;;
25079;SDS011;13071;48.868;9.996;2023-03-01T08:48:30;20.30;;;7.33;;
25079;SDS011;13071;48.868;9.996;2023-03-01T08:50:56;28.97;;;8.53;;
25079;SDS011;13071;48.868;9.996;2023-03-01T08:53:25;23.50;;;8.57;;
25079;SDS011;13071;48.868;9.996;2023-03-01T08:55:51;30.23;;;9.37;;
25079;SDS011;13071;48.868;9.996;2023-03-01T08:58:18;23.60;;;7.77;;
25079;SDS011;13071;48.868;9.996;2023-03-01T09:00:46;25.87;;;8.43;;
25079;SDS011;13071;48.868;9.996;2023-03-01T09:03:12;29.80;;;7.93;;
25079;SDS011;13071;48.868;9.996;2023-03-01T09:05:39;20.50;;;8.17;;
25079;SDS011;13071;48.868;9.996;2023-03-01T09:08:05;25.43;;;8.50;;
25079;SDS011;13071;48.868;9.996;2023-03-01T09:10:36;25.30;;;8.60;;
25079;SDS011;13071;48.868;9.996;2023-03-01T09:13:04;25.02;;;8.50;;
25079;SDS011;13071;48.868;9.996;2023-03-01T09:15:30;27.55;;;8.80;;
25079;SDS011;13071;48.868;9.996;2023-03-01T09:17:59;21.30;;;8.18;;
25079;SDS011;13071;48.868;9.996;2023-03-01T09:20:26;22.92;;;8.13;;
25079;SDS011;13071;48.868;9.996;2023-03-01T09:22:52;24.23;;;9.05;;
25079;SDS011;13071;48.868;9.996;2023-03-01T09:25:19;20.38;;;7.68;;
25079;SDS011;13071;48.868;9.996;2023-03-01T09:27:46;20.98;;;8.38;;
25079;SDS011;13071;48.868;9.996;2023-03-01T09:30:13;34.53;;;10.23;;
25079;SDS011;13071;48.868;9.996;2023-03-01T09:32:40;25.23;;;9.30;;
25079;SDS011;13071;48.868;9.996;2023-03-01T09:35:09;30.50;;;9.63;;
25079;SDS011;13071;48.868;9.996;2023-03-01T09:37:35;25.50;;;9.02;;
25079;SDS011;13071;48.868;9.996;2023-03-01T09:40:04;28.05;;;8.85;;
25079;SDS011;13071;48.868;9.996;2023-03-01T09:42:32;28.42;;;9.55;;
25079;SDS011;13071;48.868;9.996;2023-03-01T09:45:01;25.50;;;9.25;;
25079;SDS011;13071;48.868;9.996;2023-03-01T09:47:31;28.30;;;9.80;;
25079;SDS011;13071;48.868;9.996;2023-03-01T09:50:02;27.13;;;8.80;;
25079;SDS011;13071;48.868;9.996;2023-03-01T09:52:39;26.52;;;9.60;;
25079;SDS011;13071;48.868;9.996;2023-03-01T09:55:11;23.63;;;8.50;;
25079;SDS011;13071;48.868;9.996;2023-03-01T09:57:41;26.77;;;8.50;;
25079;SDS011;13071;48.868;9.996;2023-03-01T10:00:16;28.80;;;8.38;;
25079;SDS011;13071;48.868;9.996;2023-03-01T10:02:50;23.05;;;8.77;;
25079;SDS011;13071;48.868;9.996;2023-03-01T10:05:35;22.90;;;8.88;;
25079;SDS011;13071;48.868;9.996;2023-03-01T10:08:26;28.33;;;8.70;;
25079;SDS011;13071;48.868;9.996;2023-03-01T10:10:56;24.73;;;9.27;;
25079;SDS011;13071;48.868;9.996;2023-03-01T10:13:25;28.92;;;9.60;;
25079;SDS011;13071;48.868;9.996;2023-03-01T10:15:59;24.00;;;8.75;;
25079;SDS011;13071;48.868;9.996;2023-03-01T10:18:30;28.40;;;9.35;;
25079;SDS011;13071;48.868;9.996;2023-03-01T10:21:02;30.73;;;9.63;;
25079;SDS011;13071;48.868;9.996;2023-03-01T10:23:40;26.83;;;9.95;;
25079;SDS011;13071;48.868;9.996;2023-03-01T10:26:10;27.15;;;9.43;;
25079;SDS011;13071;48.868;9.996;2023-03-01T10:28:50;26.38;;;10.02;;
25079;SDS011;13071;48.868;9.996;2023-03-01T10:31:25;23.60;;;9.20;;
25079;SDS011;13071;48.868;9.996;2023-03-01T10:34:02;25.67;;;9.60;;
25079;SDS011;13071;48.868;9.996;2023-03-01T10:36:28;31.95;;;10.45;;
25079;SDS011;13071;48.868;9.996;2023-03-01T10:39:00;30.10;;;10.18;;
25079;SDS011;13071;48.868;9.996;2023-03-01T10:41:38;27.17;;;10.32;;
25079;SDS011;13071;48.868;9.996;2023-03-01T10:44:34;28.52;;;10.07;;
25079;SDS011;13071;48.868;9.996;2023-03-01T10:47:03;25.98;;;8.85;;
25079;SDS011;13071;48.868;9.996;2023-03-01T10:49:30;25.38;;;10.02;;
25079;SDS011;13071;48.868;9.996;2023-03-01T10:51:57;31.77;;;10.70;;
25079;SDS011;13071;48.868;9.996;2023-03-01T10:54:45;30.60;;;10.77;;
25079;SDS011;13071;48.868;9.996;2023-03-01T10:57:27;30.50;;;10.73;;
25079;SDS011;13071;48.868;9.996;2023-03-01T11:00:10;29.00;;;10.63;;
25079;SDS011;13071;48.868;9.996;2023-03-01T11:02:42;25.83;;;10.10;;
25079;SDS011;13071;48.868;9.996;2023-03-01T11:05:15;30.80;;;11.07;;
25079;SDS011;13071;48.868;9.996;2023-03-01T11:07:48;27.58;;;10.57;;
25079;SDS011;13071;48.868;9.996;2023-03-01T11:10:18;27.90;;;9.13;;
25079;SDS011;13071;48.868;9.996;2023-03-01T11:12:46;33.10;;;10.23;;
25079;SDS011;13071;48.868;9.996;2023-03-01T11:15:20;26.70;;;9.73;;
25079;SDS011;13071;48.868;9.996;2023-03-01T11:17:51;27.88;;;10.00;;
25079;SDS011;13071;48.868;9.996;2023-03-01T11:20:20;27.92;;;9.98;;
25079;SDS011;13071;48.868;9.996;2023-03-01T11:22:52;26.25;;;9.68;;
25079;SDS011;13071;48.868;9.996;2023-03-01T11:25:23;24.23;;;9.65;;
25079;SDS011;13071;48.868;9.996;2023-03-01T11:27:53;30.92;;;11.85;;
25079;SDS011;13071;48.868;9.996;2023-03-01T11:30:21;30.98;;;10.85;;
25079;SDS011;13071;48.868;9.996;2023-03-01T11:32:53;29.02;;;9.75;;
25079;SDS011;13071;48.868;9.996;2023-03-01T11:35:29;33.47;;;10.13;;
25079;SDS011;13071;48.868;9.996;2023-03-01T11:37:59;32.08;;;10.77;;
25079;SDS011;13071;48.868;9.996;2023-03-01T11:40:40;26.15;;;10.60;;
25079;SDS011;13071;48.868;9.996;2023-03-01T11:43:14;27.00;;;9.25;;
25079;SDS011;13071;48.868;9.996;2023-03-01T11:45:55;24.83;;;9.07;;
25079;SDS011;13071;48.868;9.996;2023-03-01T11:48:37;25.38;;;9.55;;
25079;SDS011;13071;48.868;9.996;2023-03-01T11:51:13;23.35;;;9.55;;
25079;SDS011;13071;48.868;9.996;2023-03-01T11:54:02;26.05;;;10.00;;
25079;SDS011;13071;48.868;9.996;2023-03-01T11:56:38;24.60;;;9.80;;
25079;SDS011;13071;48.868;9.996;2023-03-01T12:02:18;34.90;;;10.90;;
25079;SDS011;13071;48.868;9.996;2023-03-01T12:07:58;22.30;;;9.52;;
25079;SDS011;13071;48.868;9.996;2023-03-01T12:10:33;25.95;;;9.48;;
25079;SDS011;13071;48.868;9.996;2023-03-01T12:13:19;24.08;;;9.98;;
25079;SDS011;13071;48.868;9.996;2023-03-01T12:19:05;24.42;;;9.60;;
25079;SDS011;13071;48.868;9.996;2023-03-01T12:21:43;23.10;;;9.02;;
25079;SDS011;13071;48.868;9.996;2023-03-01T12:24:29;22.00;;;9.50;;
25079;SDS011;13071;48.868;9.996;2023-03-01T12:27:12;23.38;;;9.85;;
25079;SDS011;13071;48.868;9.996;2023-03-01T12:29:56;32.05;;;10.50;;
25079;SDS011;13071;48.868;9.996;2023-03-01T12:32:39;28.38;;;10.73;;
25079;SDS011;13071;48.868;9.996;2023-03-01T12:35:22;28.75;;;11.88;;
25079;SDS011;13071;48.868;9.996;2023-03-01T12:38:04;29.85;;;11.32;;
25079;SDS011;13071;48.868;9.996;2023-03-01T12:40:53;32.33;;;12.88;;
25079;SDS011;13071;48.868;9.996;2023-03-01T12:43:36;35.25;;;11.63;;
25079;SDS011;13071;48.868;9.996;2023-03-01T12:46:21;27.13;;;11.43;;
25079;SDS011;13071;48.868;9.996;2023-03-01T12:49:02;28.67;;;10.80;;
25079;SDS011;13071;48.868;9.996;2023-03-01T12:51:35;29.98;;;10.82;;
25079;SDS011;13071;48.868;9.996;2023-03-01T12:54:05;26.95;;;11.27;;
25079;SDS011;13071;48.868;9.996;2023-03-01T12:56:40;28.17;;;12.13;;
25079;SDS011;13071;48.868;9.996;2023-03-01T12:59:11;29.13;;;11.75;;
25079;SDS011;13071;48.868;9.996;2023-03-01T13:01:48;25.73;;;11.10;;
25079;SDS011;13071;48.868;9.996;2023-03-01T13:04:32;31.08;;;11.02;;
25079;SDS011;13071;48.868;9.996;2023-03-01T13:07:10;24.17;;;10.68;;
25079;SDS011;13071;48.868;9.996;2023-03-01T13:09:45;28.90;;;10.65;;
25079;SDS011;13071;48.868;9.996;2023-03-01T13:15:28;30.77;;;10.10;;
25079;SDS011;13071;48.868;9.996;2023-03-01T13:17:58;29.95;;;11.55;;
25079;SDS011;13071;48.868;9.996;2023-03-01T13:20:26;28.95;;;11.75;;
25079;SDS011;13071;48.868;9.996;2023-03-01T13:23:00;29.13;;;11.23;;
25079;SDS011;13071;48.868;9.996;2023-03-01T13:25:30;23.95;;;10.63;;
25079;SDS011;13071;48.868;9.996;2023-03-01T13:37:28;26.77;;;11.05;;
25079;SDS011;13071;48.868;9.996;2023-03-01T13:39:56;28.00;;;10.35;;
25079;SDS011;13071;48.868;9.996;2023-03-01T13:45:15;25.42;;;9.95;;
25079;SDS011;13071;48.868;9.996;2023-03-01T13:47:46;25.33;;;9.68;;
25079;SDS011;13071;48.868;9.996;2023-03-01T13:50:20;25.23;;;10.45;;
25079;SDS011;13071;48.868;9.996;2023-03-01T13:52:50;25.85;;;10.32;;
25079;SDS011;13071;48.868;9.996;2023-03-01T13:55:24;27.00;;;11.30;;
25079;SDS011;13071;48.868;9.996;2023-03-01T13:57:54;27.15;;;10.77;;
25079;SDS011;13071;48.868;9.996;2023-03-01T14:00:27;25.95;;;10.48;;
25079;SDS011;13071;48.868;9.996;2023-03-01T14:02:59;24.85;;;10.02;;
25079;SDS011;13071;48.868;9.996;2023-03-01T14:05:28;27.58;;;10.70;;
25079;SDS011;13071;48.868;9.996;2023-03-01T14:07:55;26.45;;;10.30;;
25079;SDS011;13071;48.868;9.996;2023-03-01T14:10:21;22.73;;;9.82;;
25079;SDS011;13071;48.868;9.996;2023-03-01T14:12:52;26.38;;;10.07;;
25079;SDS011;13071;48.868;9.996;2023-03-01T14:15:27;25.55;;;9.90;;
25079;SDS011;13071;48.868;9.996;2023-03-01T14:17:59;26.38;;;9.77;;
25079;SDS011;13071;48.868;9.996;2023-03-01T14:20:39;27.55;;;10.40;;
25079;SDS011;13071;48.868;9.996;2023-03-01T14:23:09;25.15;;;10.05;;
25079;SDS011;13071;48.868;9.996;2023-03-01T14:25:37;23.70;;;9.52;;
25079;SDS011;13071;48.868;9.996;2023-03-01T14:28:12;24.08;;;9.52;;
25079;SDS011;13071;48.868;9.996;2023-03-01T14:30:43;27.02;;;10.25;;
25079;SDS011;13071;48.868;9.996;2023-03-01T14:33:20;22.90;;;9.48;;
25079;SDS011;13071;48.868;9.996;2023-03-01T14:35:54;21.67;;;9.65;;
25079;SDS011;13071;48.868;9.996;2023-03-01T14:38:23;23.95;;;9.45;;
25079;SDS011;13071;48.868;9.996;2023-03-01T14:40:55;23.27;;;9.35;;
25079;SDS011;13071;48.868;9.996;2023-03-01T14:43:24;23.52;;;9.85;;
25079;SDS011;13071;48.868;9.996;2023-03-01T14:45:51;27.38;;;9.57;;
25079;SDS011;13071;48.868;9.996;2023-03-01T14:48:18;23.80;;;9.30;;
25079;SDS011;13071;48.868;9.996;2023-03-01T14:50:45;27.25;;;9.80;;
25079;SDS011;13071;48.868;9.996;2023-03-01T14:53:16;24.55;;;9.05;;
25079;SDS011;13071;48.868;9.996;2023-03-01T14:55:46;24.05;;;9.30;;
25079;SDS011;13071;48.868;9.996;2023-03-01T14:58:15;21.50;;;8.80;;
25079;SDS011;13071;48.868;9.996;2023-03-01T15:00:46;21.42;;;8.65;;
25079;SDS011;13071;48.868;9.996;2023-03-01T15:03:18;24.23;;;9.15;;
25079;SDS011;13071;48.868;9.996;2023-03-01T15:05:50;20.38;;;8.85;;
25079;SDS011;13071;48.868;9.996;2023-03-01T15:08:21;24.23;;;9.93;;
25079;SDS011;13071;48.868;9.996;2023-03-01T15:10:57;25.88;;;9.60;;
25079;SDS011;13071;48.868;9.996;2023-03-01T15:13:29;22.75;;;9.10;;